sensor_id;sensor_type;location;lat;lon;timestamp;P1;durP1;ratioP1;P2;durP2;ratioP2
76807;SDS011;65758;45.458;11.062;2023-04-09T00:00:41;7.30;;;5.60;;
76807;SDS011;65758;45.458;11.062;2023-04-09T00:03:08;6.20;;;5.60;;
76807;SDS011;65758;45.458;11.062;2023-04-09T00:05:38;7.30;;;5.30;;
76807;SDS011;65758;45.458;11.062;2023-04-09T00:08:06;6.90;;;5.60;;
76807;SDS011;65758;45.458;11.062;2023-04-09T00:10:33;7.30;;;6.10;;
76807;SDS011;65758;45.458;11.062;2023-04-09T00:13:00;6.40;;;5.50;;
76807;SDS011;65758;45.458;11.062;2023-04-09T00:15:26;5.80;;;5.20;;
76807;SDS011;65758;45.458;11.062;2023-04-09T00:17:57;8.20;;;5.40;;
76807;SDS011;65758;45.458;11.062;2023-04-09T00:20:24;6.80;;;4.90;;
76807;SDS011;65758;45.458;11.062;2023-04-09T00:22:50;5.60;;;4.80;;
76807;SDS011;65758;45.458;11.062;2023-04-09T00:25:17;5.20;;;4.70;;
76807;SDS011;65758;45.458;11.062;2023-04-09T00:27:45;6.10;;;4.70;;
76807;SDS011;65758;45.458;11.062;2023-04-09T00:30:12;4.90;;;4.40;;
76807;SDS011;65758;45.458;11.062;2023-04-09T00:32:39;6.80;;;5.20;;
76807;SDS011;65758;45.458;11.062;2023-04-09T00:35:06;6.20;;;5.40;;
76807;SDS011;65758;45.458;11.062;2023-04-09T00:37:34;6.50;;;5.20;;
76807;SDS011;65758;45.458;11.062;2023-04-09T00:40:01;7.40;;;6.00;;
76807;SDS011;65758;45.458;11.062;2023-04-09T00:42:34;6.70;;;5.20;;
76807;SDS011;65758;45.458;11.062;2023-04-09T00:45:03;6.80;;;5.90;;
76807;SDS011;65758;45.458;11.062;2023-04-09T00:47:31;6.30;;;5.70;;
76807;SDS011;65758;45.458;11.062;2023-04-09T00:50:00;8.80;;;5.70;;
76807;SDS011;65758;45.458;11.062;2023-04-09T00:52:27;7.00;;;5.00;;
76807;SDS011;65758;45.458;11.062;2023-04-09T00:54:58;5.40;;;4.70;;
76807;SDS011;65758;45.458;11.062;2023-04-09T00:57:26;6.00;;;4.90;;
76807;SDS011;65758;45.458;11.062;2023-04-09T00:59:54;5.80;;;4.70;;
76807;SDS011;65758;45.458;11.062;2023-04-09T01:02:21;5.90;;;5.00;;
76807;SDS011;65758;45.458;11.062;2023-04-09T01:04:48;5.20;;;4.40;;
76807;SDS011;65758;45.458;11.062;2023-04-09T01:07:22;5.50;;;4.70;;
76807;SDS011;65758;45.458;11.062;2023-04-09T01:15:43;5.20;;;4.50;;
76807;SDS011;65758;45.458;11.062;2023-04-09T01:21:04;5.00;;;4.50;;
76807;SDS011;65758;45.458;11.062;2023-04-09T01:23:44;6.50;;;4.30;;
76807;SDS011;65758;45.458;11.062;2023-04-09T01:29:21;4.90;;;4.10;;
76807;SDS011;65758;45.458;11.062;2023-04-09T01:31:51;8.40;;;4.80;;
76807;SDS011;65758;45.458;11.062;2023-04-09T01:34:20;6.10;;;4.40;;
76807;SDS011;65758;45.458;11.062;2023-04-09T01:36:49;5.30;;;4.60;;
76807;SDS011;65758;45.458;11.062;2023-04-09T01:39:19;6.10;;;4.70;;
76807;SDS011;65758;45.458;11.062;2023-04-09T01:41:47;4.90;;;4.40;;
76807;SDS011;65758;45.458;11.062;2023-04-09T01:44:16;5.80;;;4.20;;
76807;SDS011;65758;45.458;11.062;2023-04-09T01:46:45;5.70;;;3.90;;
76807;SDS011;65758;45.458;11.062;2023-04-09T01:49:13;5.80;;;4.60;;
76807;SDS011;65758;45.458;11.062;2023-04-09T01:51:41;6.30;;;4.00;;
76807;SDS011;65758;45.458;11.062;2023-04-09T01:54:08;5.00;;;4.20;;
76807;SDS011;65758;45.458;11.062;2023-04-09T01:56:39;5.00;;;4.30;;
76807;SDS011;65758;45.458;11.062;2023-04-09T01:59:10;4.20;;;3.80;;
76807;SDS011;65758;45.458;11.062;2023-04-09T02:01:40;7.80;;;4.40;;
76807;SDS011;65758;45.458;11.062;2023-04-09T02:04:17;6.10;;;4.60;;
76807;SDS011;65758;45.458;11.062;2023-04-09T02:09:26;5.60;;;4.20;;
76807;SDS011;65758;45.458;11.062;2023-04-09T02:11:57;6.20;;;4.50;;
76807;SDS011;65758;45.458;11.062;2023-04-09T02:14:27;5.30;;;4.00;;
76807;SDS011;65758;45.458;11.062;2023-04-09T02:16:55;6.10;;;4.10;;
76807;SDS011;65758;45.458;11.062;2023-04-09T02:19:21;5.60;;;4.40;;
76807;SDS011;65758;45.458;11.062;2023-04-09T02:21:48;5.90;;;4.10;;
76807;SDS011;65758;45.458;11.062;2023-04-09T02:24:15;6.80;;;4.90;;
76807;SDS011;65758;45.458;11.062;2023-04-09T02:26:42;6.10;;;4.80;;
76807;SDS011;65758;45.458;11.062;2023-04-09T02:29:08;5.50;;;4.40;;
76807;SDS011;65758;45.458;11.062;2023-04-09T02:31:35;4.80;;;4.20;;
76807;SDS011;65758;45.458;11.062;2023-04-09T02:34:02;5.10;;;3.80;;
76807;SDS011;65758;45.458;11.062;2023-04-09T02:36:28;4.90;;;4.40;;
76807;SDS011;65758;45.458;11.062;2023-04-09T02:38:56;4.90;;;4.40;;
76807;SDS011;65758;45.458;11.062;2023-04-09T02:41:23;4.70;;;4.10;;
76807;SDS011;65758;45.458;11.062;2023-04-09T02:43:50;4.80;;;4.00;;
76807;SDS011;65758;45.458;11.062;2023-04-09T02:46:17;4.30;;;3.80;;
76807;SDS011;65758;45.458;11.062;2023-04-09T02:48:44;6.30;;;3.90;;
76807;SDS011;65758;45.458;11.062;2023-04-09T02:51:11;5.70;;;4.40;;
76807;SDS011;65758;45.458;11.062;2023-04-09T02:53:37;5.10;;;4.60;;
76807;SDS011;65758;45.458;11.062;2023-04-09T02:56:06;6.70;;;4.50;;
76807;SDS011;65758;45.458;11.062;2023-04-09T02:58:33;4.30;;;3.90;;
76807;SDS011;65758;45.458;11.062;2023-04-09T03:00:59;5.30;;;4.80;;
76807;SDS011;65758;45.458;11.062;2023-04-09T03:03:26;4.90;;;4.40;;
76807;SDS011;65758;45.458;11.062;2023-04-09T03:05:53;5.50;;;4.20;;
76807;SDS011;65758;45.458;11.062;2023-04-09T03:08:20;4.80;;;4.40;;
76807;SDS011;65758;45.458;11.062;2023-04-09T03:10:46;5.20;;;4.20;;
76807;SDS011;65758;45.458;11.062;2023-04-09T03:13:13;5.10;;;4.10;;
76807;SDS011;65758;45.458;11.062;2023-04-09T03:15:40;5.10;;;4.00;;
76807;SDS011;65758;45.458;11.062;2023-04-09T03:18:07;5.90;;;4.60;;
76807;SDS011;65758;45.458;11.062;2023-04-09T03:20:36;5.70;;;4.40;;
76807;SDS011;65758;45.458;11.062;2023-04-09T03:23:05;5.20;;;4.00;;
76807;SDS011;65758;45.458;11.062;2023-04-09T03:25:37;5.40;;;4.40;;
76807;SDS011;65758;45.458;11.062;2023-04-09T03:28:10;4.70;;;4.20;;
76807;SDS011;65758;45.458;11.062;2023-04-09T03:30:40;5.00;;;4.40;;
76807;SDS011;65758;45.458;11.062;2023-04-09T03:33:07;6.60;;;5.40;;
76807;SDS011;65758;45.458;11.062;2023-04-09T03:35:43;5.50;;;4.60;;
76807;SDS011;65758;45.458;11.062;2023-04-09T03:38:10;4.80;;;4.20;;
76807;SDS011;65758;45.458;11.062;2023-04-09T03:40:38;5.10;;;3.80;;
76807;SDS011;65758;45.458;11.062;2023-04-09T03:43:04;4.80;;;3.90;;
76807;SDS011;65758;45.458;11.062;2023-04-09T03:45:31;5.60;;;4.10;;
76807;SDS011;65758;45.458;11.062;2023-04-09T03:48:10;5.00;;;4.40;;
76807;SDS011;65758;45.458;11.062;2023-04-09T03:50:37;6.00;;;4.80;;
76807;SDS011;65758;45.458;11.062;2023-04-09T03:53:06;6.20;;;4.20;;
76807;SDS011;65758;45.458;11.062;2023-04-09T03:55:33;6.00;;;4.80;;
76807;SDS011;65758;45.458;11.062;2023-04-09T03:58:02;5.40;;;4.50;;
76807;SDS011;65758;45.458;11.062;2023-04-09T04:00:30;5.30;;;4.20;;
76807;SDS011;65758;45.458;11.062;2023-04-09T04:03:17;5.70;;;4.70;;
76807;SDS011;65758;45.458;11.062;2023-04-09T04:06:10;4.60;;;4.10;;
76807;SDS011;65758;45.458;11.062;2023-04-09T04:08:43;5.50;;;4.80;;
76807;SDS011;65758;45.458;11.062;2023-04-09T04:11:11;5.30;;;4.70;;
76807;SDS011;65758;45.458;11.062;2023-04-09T04:13:38;5.80;;;4.30;;
76807;SDS011;65758;45.458;11.062;2023-04-09T04:16:07;6.50;;;4.50;;
76807;SDS011;65758;45.458;11.062;2023-04-09T04:18:35;5.20;;;4.60;;
76807;SDS011;65758;45.458;11.062;2023-04-09T04:21:03;6.30;;;4.90;;
76807;SDS011;65758;45.458;11.062;2023-04-09T04:23:30;6.50;;;4.90;;
76807;SDS011;65758;45.458;11.062;2023-04-09T04:26:06;6.70;;;5.10;;
76807;SDS011;65758;45.458;11.062;2023-04-09T04:28:38;6.10;;;4.70;;
76807;SDS011;65758;45.458;11.062;2023-04-09T04:31:08;7.60;;;5.00;;
76807;SDS011;65758;45.458;11.062;2023-04-09T04:33:39;5.50;;;4.90;;
76807;SDS011;65758;45.458;11.062;2023-04-09T04:36:10;6.20;;;5.10;;
76807;SDS011;65758;45.458;11.062;2023-04-09T04:38:45;6.00;;;5.40;;
76807;SDS011;65758;45.458;11.062;2023-04-09T04:41:19;6.80;;;5.20;;
76807;SDS011;65758;45.458;11.062;2023-04-09T04:43:52;8.00;;;5.80;;
76807;SDS011;65758;45.458;11.062;2023-04-09T04:46:21;7.90;;;5.40;;
76807;SDS011;65758;45.458;11.062;2023-04-09T04:48:48;5.70;;;5.00;;
76807;SDS011;65758;45.458;11.062;2023-04-09T04:51:15;6.90;;;4.90;;
76807;SDS011;65758;45.458;11.062;2023-04-09T04:56:14;7.30;;;5.20;;
76807;SDS011;65758;45.458;11.062;2023-04-09T04:58:51;8.60;;;5.20;;
76807;SDS011;65758;45.458;11.062;2023-04-09T05:01:18;11.70;;;6.10;;
76807;SDS011;65758;45.458;11.062;2023-04-09T05:03:46;8.20;;;5.20;;
76807;SDS011;65758;45.458;11.062;2023-04-09T05:06:31;10.10;;;5.40;;
76807;SDS011;65758;45.458;11.062;2023-04-09T05:09:01;10.00;;;5.60;;
76807;SDS011;65758;45.458;11.062;2023-04-09T05:11:34;6.80;;;5.10;;
76807;SDS011;65758;45.458;11.062;2023-04-09T05:14:06;5.30;;;4.80;;
76807;SDS011;65758;45.458;11.062;2023-04-09T05:16:32;7.80;;;5.20;;
76807;SDS011;65758;45.458;11.062;2023-04-09T05:19:02;6.70;;;6.00;;
76807;SDS011;65758;45.458;11.062;2023-04-09T05:21:29;6.70;;;5.30;;
76807;SDS011;65758;45.458;11.062;2023-04-09T05:23:58;7.40;;;5.30;;
76807;SDS011;65758;45.458;11.062;2023-04-09T05:26:28;5.40;;;4.90;;
76807;SDS011;65758;45.458;11.062;2023-04-09T05:28:56;6.30;;;5.00;;
76807;SDS011;65758;45.458;11.062;2023-04-09T05:31:24;6.40;;;5.20;;
76807;SDS011;65758;45.458;11.062;2023-04-09T05:33:54;6.80;;;5.00;;
76807;SDS011;65758;45.458;11.062;2023-04-09T05:36:29;6.60;;;5.40;;
76807;SDS011;65758;45.458;11.062;2023-04-09T05:38:55;6.30;;;5.30;;
76807;SDS011;65758;45.458;11.062;2023-04-09T05:41:22;5.80;;;5.10;;
76807;SDS011;65758;45.458;11.062;2023-04-09T05:44:01;5.70;;;4.90;;
76807;SDS011;65758;45.458;11.062;2023-04-09T05:46:28;7.00;;;5.10;;
76807;SDS011;65758;45.458;11.062;2023-04-09T05:48:55;6.10;;;5.50;;
76807;SDS011;65758;45.458;11.062;2023-04-09T05:51:22;6.90;;;5.40;;
76807;SDS011;65758;45.458;11.062;2023-04-09T05:53:49;9.80;;;5.60;;
76807;SDS011;65758;45.458;11.062;2023-04-09T05:56:16;5.40;;;4.90;;
76807;SDS011;65758;45.458;11.062;2023-04-09T05:58:48;7.20;;;5.90;;
76807;SDS011;65758;45.458;11.062;2023-04-09T06:01:16;7.60;;;5.70;;
76807;SDS011;65758;45.458;11.062;2023-04-09T06:03:42;9.10;;;6.60;;
76807;SDS011;65758;45.458;11.062;2023-04-09T06:06:10;8.10;;;6.60;;
76807;SDS011;65758;45.458;11.062;2023-04-09T06:08:36;7.00;;;6.00;;
76807;SDS011;65758;45.458;11.062;2023-04-09T06:11:05;9.20;;;5.80;;
76807;SDS011;65758;45.458;11.062;2023-04-09T06:13:36;7.90;;;5.70;;
76807;SDS011;65758;45.458;11.062;2023-04-09T06:16:03;7.10;;;5.80;;
76807;SDS011;65758;45.458;11.062;2023-04-09T06:18:34;8.10;;;5.70;;
76807;SDS011;65758;45.458;11.062;2023-04-09T06:23:30;6.60;;;5.90;;
76807;SDS011;65758;45.458;11.062;2023-04-09T06:25:58;7.60;;;6.30;;
76807;SDS011;65758;45.458;11.062;2023-04-09T06:28:26;8.60;;;6.10;;
76807;SDS011;65758;45.458;11.062;2023-04-09T06:30:54;6.60;;;5.20;;
76807;SDS011;65758;45.458;11.062;2023-04-09T06:33:21;7.70;;;5.60;;
76807;SDS011;65758;45.458;11.062;2023-04-09T06:35:48;5.30;;;4.80;;
76807;SDS011;65758;45.458;11.062;2023-04-09T06:38:15;4.80;;;4.20;;
76807;SDS011;65758;45.458;11.062;2023-04-09T06:40:43;5.00;;;4.40;;
76807;SDS011;65758;45.458;11.062;2023-04-09T06:43:10;4.40;;;4.00;;
76807;SDS011;65758;45.458;11.062;2023-04-09T06:45:47;5.80;;;3.80;;
76807;SDS011;65758;45.458;11.062;2023-04-09T06:48:13;5.20;;;4.00;;
76807;SDS011;65758;45.458;11.062;2023-04-09T06:50:40;4.20;;;3.80;;
76807;SDS011;65758;45.458;11.062;2023-04-09T06:53:07;4.30;;;3.70;;
76807;SDS011;65758;45.458;11.062;2023-04-09T06:55:34;5.80;;;4.60;;
76807;SDS011;65758;45.458;11.062;2023-04-09T06:58:01;3.50;;;3.10;;
76807;SDS011;65758;45.458;11.062;2023-04-09T07:00:29;4.00;;;3.50;;
76807;SDS011;65758;45.458;11.062;2023-04-09T07:02:56;4.00;;;3.40;;
76807;SDS011;65758;45.458;11.062;2023-04-09T07:05:23;2.90;;;2.70;;
76807;SDS011;65758;45.458;11.062;2023-04-09T07:07:50;4.40;;;4.00;;
76807;SDS011;65758;45.458;11.062;2023-04-09T07:10:17;4.90;;;4.10;;
76807;SDS011;65758;45.458;11.062;2023-04-09T07:12:43;4.80;;;3.80;;
76807;SDS011;65758;45.458;11.062;2023-04-09T07:15:10;3.50;;;3.20;;
76807;SDS011;65758;45.458;11.062;2023-04-09T07:17:37;3.40;;;2.80;;
76807;SDS011;65758;45.458;11.062;2023-04-09T07:20:04;5.40;;;3.20;;
76807;SDS011;65758;45.458;11.062;2023-04-09T07:22:31;3.60;;;3.30;;
76807;SDS011;65758;45.458;11.062;2023-04-09T07:24:58;3.30;;;3.00;;
76807;SDS011;65758;45.458;11.062;2023-04-09T07:27:25;3.40;;;3.10;;
76807;SDS011;65758;45.458;11.062;2023-04-09T07:29:56;4.10;;;3.20;;
76807;SDS011;65758;45.458;11.062;2023-04-09T07:32:24;3.30;;;3.00;;
76807;SDS011;65758;45.458;11.062;2023-04-09T07:34:54;3.30;;;3.00;;
76807;SDS011;65758;45.458;11.062;2023-04-09T07:37:21;2.90;;;2.50;;
76807;SDS011;65758;45.458;11.062;2023-04-09T07:39:48;6.00;;;2.90;;
76807;SDS011;65758;45.458;11.062;2023-04-09T07:42:16;2.60;;;2.40;;
76807;SDS011;65758;45.458;11.062;2023-04-09T07:44:43;2.70;;;2.50;;
76807;SDS011;65758;45.458;11.062;2023-04-09T07:47:10;4.30;;;3.00;;
76807;SDS011;65758;45.458;11.062;2023-04-09T07:49:38;3.00;;;2.70;;
76807;SDS011;65758;45.458;11.062;2023-04-09T07:52:05;3.80;;;2.70;;
76807;SDS011;65758;45.458;11.062;2023-04-09T07:54:32;3.00;;;2.70;;
76807;SDS011;65758;45.458;11.062;2023-04-09T07:57:00;3.00;;;2.70;;
76807;SDS011;65758;45.458;11.062;2023-04-09T07:59:27;2.70;;;2.30;;
76807;SDS011;65758;45.458;11.062;2023-04-09T08:01:55;2.30;;;2.10;;
76807;SDS011;65758;45.458;11.062;2023-04-09T08:04:22;2.70;;;2.50;;
76807;SDS011;65758;45.458;11.062;2023-04-09T08:06:49;2.90;;;2.70;;
76807;SDS011;65758;45.458;11.062;2023-04-09T08:09:16;2.20;;;2.00;;
76807;SDS011;65758;45.458;11.062;2023-04-09T08:11:44;2.20;;;1.90;;
76807;SDS011;65758;45.458;11.062;2023-04-09T08:14:11;2.50;;;2.20;;
76807;SDS011;65758;45.458;11.062;2023-04-09T08:16:45;2.50;;;2.30;;
76807;SDS011;65758;45.458;11.062;2023-04-09T08:19:14;2.60;;;2.40;;
76807;SDS011;65758;45.458;11.062;2023-04-09T08:21:41;2.40;;;2.20;;
76807;SDS011;65758;45.458;11.062;2023-04-09T08:24:09;2.40;;;2.20;;
76807;SDS011;65758;45.458;11.062;2023-04-09T08:26:37;2.20;;;1.80;;
76807;SDS011;65758;45.458;11.062;2023-04-09T08:29:05;2.20;;;2.10;;
76807;SDS011;65758;45.458;11.062;2023-04-09T08:31:33;2.20;;;2.00;;
76807;SDS011;65758;45.458;11.062;2023-04-09T08:34:02;2.20;;;1.70;;
76807;SDS011;65758;45.458;11.062;2023-04-09T08:36:29;2.50;;;2.00;;
76807;SDS011;65758;45.458;11.062;2023-04-09T08:38:57;2.10;;;2.00;;
76807;SDS011;65758;45.458;11.062;2023-04-09T08:41:26;3.40;;;2.00;;
76807;SDS011;65758;45.458;11.062;2023-04-09T08:43:54;1.70;;;1.50;;
76807;SDS011;65758;45.458;11.062;2023-04-09T08:46:24;2.30;;;1.80;;
76807;SDS011;65758;45.458;11.062;2023-04-09T08:48:52;1.90;;;1.80;;
76807;SDS011;65758;45.458;11.062;2023-04-09T08:51:20;2.10;;;1.90;;
76807;SDS011;65758;45.458;11.062;2023-04-09T08:53:51;2.20;;;2.00;;
76807;SDS011;65758;45.458;11.062;2023-04-09T08:56:20;2.00;;;1.80;;
76807;SDS011;65758;45.458;11.062;2023-04-09T08:58:47;1.90;;;1.60;;
76807;SDS011;65758;45.458;11.062;2023-04-09T09:01:21;2.00;;;1.80;;
76807;SDS011;65758;45.458;11.062;2023-04-09T09:06:25;2.50;;;1.70;;
76807;SDS011;65758;45.458;11.062;2023-04-09T09:08:59;2.10;;;1.90;;
76807;SDS011;65758;45.458;11.062;2023-04-09T09:11:27;2.10;;;1.90;;
76807;SDS011;65758;45.458;11.062;2023-04-09T09:13:59;1.70;;;1.50;;
76807;SDS011;65758;45.458;11.062;2023-04-09T09:16:27;2.20;;;2.10;;
76807;SDS011;65758;45.458;11.062;2023-04-09T09:18:55;2.70;;;2.00;;
76807;SDS011;65758;45.458;11.062;2023-04-09T09:21:23;2.50;;;2.30;;
76807;SDS011;65758;45.458;11.062;2023-04-09T09:23:51;2.20;;;1.90;;
76807;SDS011;65758;45.458;11.062;2023-04-09T09:26:20;2.50;;;2.30;;
76807;SDS011;65758;45.458;11.062;2023-04-09T09:28:50;2.10;;;2.00;;
76807;SDS011;65758;45.458;11.062;2023-04-09T09:31:18;2.20;;;2.10;;
76807;SDS011;65758;45.458;11.062;2023-04-09T09:33:46;2.50;;;2.30;;
76807;SDS011;65758;45.458;11.062;2023-04-09T09:36:14;2.40;;;2.20;;
76807;SDS011;65758;45.458;11.062;2023-04-09T09:38:49;3.80;;;2.50;;
76807;SDS011;65758;45.458;11.062;2023-04-09T09:41:19;2.50;;;2.30;;
76807;SDS011;65758;45.458;11.062;2023-04-09T09:43:46;2.50;;;2.30;;
76807;SDS011;65758;45.458;11.062;2023-04-09T09:46:13;3.00;;;2.70;;
76807;SDS011;65758;45.458;11.062;2023-04-09T09:48:41;2.60;;;2.40;;
76807;SDS011;65758;45.458;11.062;2023-04-09T09:51:09;3.00;;;2.70;;
76807;SDS011;65758;45.458;11.062;2023-04-09T09:53:38;3.10;;;2.50;;
76807;SDS011;65758;45.458;11.062;2023-04-09T09:56:11;2.20;;;2.00;;
76807;SDS011;65758;45.458;11.062;2023-04-09T09:58:43;2.60;;;2.40;;
76807;SDS011;65758;45.458;11.062;2023-04-09T10:01:14;2.90;;;2.60;;
76807;SDS011;65758;45.458;11.062;2023-04-09T10:03:45;2.90;;;2.70;;
76807;SDS011;65758;45.458;11.062;2023-04-09T10:06:15;2.50;;;2.30;;
76807;SDS011;65758;45.458;11.062;2023-04-09T10:08:42;3.20;;;2.60;;
76807;SDS011;65758;45.458;11.062;2023-04-09T10:11:09;2.80;;;2.50;;
76807;SDS011;65758;45.458;11.062;2023-04-09T10:13:40;2.50;;;2.30;;
76807;SDS011;65758;45.458;11.062;2023-04-09T10:16:21;3.00;;;2.70;;
76807;SDS011;65758;45.458;11.062;2023-04-09T10:18:48;2.40;;;2.30;;
76807;SDS011;65758;45.458;11.062;2023-04-09T10:23:49;2.80;;;2.50;;
76807;SDS011;65758;45.458;11.062;2023-04-09T10:26:17;3.80;;;2.70;;
76807;SDS011;65758;45.458;11.062;2023-04-09T10:28:45;2.80;;;2.60;;
76807;SDS011;65758;45.458;11.062;2023-04-09T10:31:12;3.00;;;2.80;;
76807;SDS011;65758;45.458;11.062;2023-04-09T10:33:39;3.10;;;2.80;;
76807;SDS011;65758;45.458;11.062;2023-04-09T10:36:09;3.70;;;3.20;;
76807;SDS011;65758;45.458;11.062;2023-04-09T10:38:38;4.70;;;3.10;;
76807;SDS011;65758;45.458;11.062;2023-04-09T10:41:08;3.40;;;3.10;;
76807;SDS011;65758;45.458;11.062;2023-04-09T10:43:40;3.20;;;2.90;;
76807;SDS011;65758;45.458;11.062;2023-04-09T10:46:23;3.10;;;2.90;;
76807;SDS011;65758;45.458;11.062;2023-04-09T10:49:09;3.20;;;2.50;;
76807;SDS011;65758;45.458;11.062;2023-04-09T10:52:05;3.40;;;3.10;;
76807;SDS011;65758;45.458;11.062;2023-04-09T10:59:34;4.30;;;3.30;;
76807;SDS011;65758;45.458;11.062;2023-04-09T11:02:08;3.70;;;3.20;;
76807;SDS011;65758;45.458;11.062;2023-04-09T11:07:52;2.90;;;2.60;;
76807;SDS011;65758;45.458;11.062;2023-04-09T11:10:23;3.30;;;3.00;;
76807;SDS011;65758;45.458;11.062;2023-04-09T11:12:50;2.90;;;2.60;;
76807;SDS011;65758;45.458;11.062;2023-04-09T11:15:17;2.80;;;2.60;;
76807;SDS011;65758;45.458;11.062;2023-04-09T11:17:45;3.40;;;3.10;;
76807;SDS011;65758;45.458;11.062;2023-04-09T11:20:13;3.10;;;2.90;;
76807;SDS011;65758;45.458;11.062;2023-04-09T11:22:42;3.10;;;2.90;;
76807;SDS011;65758;45.458;11.062;2023-04-09T11:25:09;2.90;;;2.70;;
76807;SDS011;65758;45.458;11.062;2023-04-09T11:27:42;2.90;;;2.70;;
76807;SDS011;65758;45.458;11.062;2023-04-09T11:30:12;3.10;;;2.70;;
76807;SDS011;65758;45.458;11.062;2023-04-09T11:32:39;3.30;;;3.10;;
76807;SDS011;65758;45.458;11.062;2023-04-09T11:35:10;3.80;;;2.90;;
76807;SDS011;65758;45.458;11.062;2023-04-09T11:37:40;2.80;;;2.60;;
76807;SDS011;65758;45.458;11.062;2023-04-09T11:40:19;3.30;;;3.00;;
76807;SDS011;65758;45.458;11.062;2023-04-09T11:42:52;3.30;;;3.00;;
76807;SDS011;65758;45.458;11.062;2023-04-09T11:45:24;3.50;;;3.00;;
76807;SDS011;65758;45.458;11.062;2023-04-09T11:47:53;3.50;;;3.20;;
76807;SDS011;65758;45.458;11.062;2023-04-09T11:50:20;3.30;;;3.00;;
76807;SDS011;65758;45.458;11.062;2023-04-09T11:52:48;3.90;;;2.90;;
76807;SDS011;65758;45.458;11.062;2023-04-09T11:55:22;4.50;;;4.00;;
76807;SDS011;65758;45.458;11.062;2023-04-09T11:57:52;3.10;;;2.90;;
76807;SDS011;65758;45.458;11.062;2023-04-09T12:00:22;3.90;;;3.20;;
76807;SDS011;65758;45.458;11.062;2023-04-09T12:02:57;2.90;;;2.60;;
76807;SDS011;65758;45.458;11.062;2023-04-09T12:05:27;3.30;;;3.00;;
76807;SDS011;65758;45.458;11.062;2023-04-09T12:08:00;3.70;;;3.40;;
76807;SDS011;65758;45.458;11.062;2023-04-09T12:10:31;3.90;;;3.60;;
76807;SDS011;65758;45.458;11.062;2023-04-09T12:13:04;3.10;;;2.90;;
76807;SDS011;65758;45.458;11.062;2023-04-09T12:15:36;4.60;;;3.80;;
76807;SDS011;65758;45.458;11.062;2023-04-09T12:18:06;4.50;;;3.60;;
76807;SDS011;65758;45.458;11.062;2023-04-09T12:20:35;4.40;;;3.40;;
76807;SDS011;65758;45.458;11.062;2023-04-09T12:23:07;3.40;;;3.10;;
76807;SDS011;65758;45.458;11.062;2023-04-09T12:25:39;3.30;;;2.90;;
76807;SDS011;65758;45.458;11.062;2023-04-09T12:28:07;3.20;;;2.90;;
76807;SDS011;65758;45.458;11.062;2023-04-09T12:30:36;3.20;;;2.90;;
76807;SDS011;65758;45.458;11.062;2023-04-09T12:33:03;3.40;;;3.10;;
76807;SDS011;65758;45.458;11.062;2023-04-09T12:35:31;3.50;;;3.20;;
76807;SDS011;65758;45.458;11.062;2023-04-09T12:37:59;3.60;;;3.30;;
76807;SDS011;65758;45.458;11.062;2023-04-09T12:40:26;3.50;;;2.90;;
76807;SDS011;65758;45.458;11.062;2023-04-09T12:42:53;2.90;;;2.70;;
76807;SDS011;65758;45.458;11.062;2023-04-09T12:45:20;3.40;;;3.10;;
76807;SDS011;65758;45.458;11.062;2023-04-09T12:47:47;4.60;;;3.10;;
76807;SDS011;65758;45.458;11.062;2023-04-09T12:50:15;3.00;;;2.80;;
76807;SDS011;65758;45.458;11.062;2023-04-09T12:52:42;2.90;;;2.70;;
76807;SDS011;65758;45.458;11.062;2023-04-09T12:55:10;3.00;;;2.80;;
76807;SDS011;65758;45.458;11.062;2023-04-09T12:57:38;4.70;;;2.90;;
76807;SDS011;65758;45.458;11.062;2023-04-09T13:00:06;4.20;;;3.00;;
76807;SDS011;65758;45.458;11.062;2023-04-09T13:02:33;3.70;;;3.00;;
76807;SDS011;65758;45.458;11.062;2023-04-09T13:05:01;3.60;;;2.90;;
76807;SDS011;65758;45.458;11.062;2023-04-09T13:07:28;3.10;;;2.80;;
76807;SDS011;65758;45.458;11.062;2023-04-09T13:09:55;3.30;;;3.00;;
76807;SDS011;65758;45.458;11.062;2023-04-09T13:12:23;3.40;;;3.10;;
76807;SDS011;65758;45.458;11.062;2023-04-09T13:14:52;3.10;;;2.90;;
76807;SDS011;65758;45.458;11.062;2023-04-09T13:17:20;3.00;;;2.80;;
76807;SDS011;65758;45.458;11.062;2023-04-09T13:19:48;3.20;;;2.90;;
76807;SDS011;65758;45.458;11.062;2023-04-09T13:22:15;3.20;;;3.00;;
76807;SDS011;65758;45.458;11.062;2023-04-09T13:24:42;3.70;;;3.30;;
76807;SDS011;65758;45.458;11.062;2023-04-09T13:27:09;3.40;;;3.10;;
76807;SDS011;65758;45.458;11.062;2023-04-09T13:29:36;3.60;;;3.30;;
76807;SDS011;65758;45.458;11.062;2023-04-09T13:32:04;3.30;;;3.00;;
76807;SDS011;65758;45.458;11.062;2023-04-09T13:34:37;4.10;;;3.10;;
76807;SDS011;65758;45.458;11.062;2023-04-09T13:37:04;4.00;;;3.60;;
76807;SDS011;65758;45.458;11.062;2023-04-09T13:39:32;3.40;;;3.10;;
76807;SDS011;65758;45.458;11.062;2023-04-09T13:41:59;3.20;;;2.90;;
76807;SDS011;65758;45.458;11.062;2023-04-09T13:44:30;3.60;;;3.00;;
76807;SDS011;65758;45.458;11.062;2023-04-09T13:46:57;3.50;;;3.20;;
76807;SDS011;65758;45.458;11.062;2023-04-09T13:49:24;4.80;;;3.00;;
76807;SDS011;65758;45.458;11.062;2023-04-09T13:51:52;3.40;;;3.10;;
76807;SDS011;65758;45.458;11.062;2023-04-09T13:54:21;5.20;;;3.40;;
76807;SDS011;65758;45.458;11.062;2023-04-09T13:56:47;5.00;;;3.50;;
76807;SDS011;65758;45.458;11.062;2023-04-09T13:59:16;3.40;;;3.10;;
76807;SDS011;65758;45.458;11.062;2023-04-09T14:01:43;3.40;;;3.10;;
76807;SDS011;65758;45.458;11.062;2023-04-09T14:04:10;3.90;;;3.00;;
76807;SDS011;65758;45.458;11.062;2023-04-09T14:06:37;2.80;;;2.60;;
76807;SDS011;65758;45.458;11.062;2023-04-09T14:09:04;3.60;;;2.70;;
76807;SDS011;65758;45.458;11.062;2023-04-09T14:11:30;2.90;;;2.70;;
76807;SDS011;65758;45.458;11.062;2023-04-09T14:13:57;3.40;;;3.10;;
76807;SDS011;65758;45.458;11.062;2023-04-09T14:16:24;3.20;;;3.00;;
76807;SDS011;65758;45.458;11.062;2023-04-09T14:18:51;2.90;;;2.60;;
76807;SDS011;65758;45.458;11.062;2023-04-09T14:21:18;6.00;;;2.80;;
76807;SDS011;65758;45.458;11.062;2023-04-09T14:23:45;3.70;;;2.60;;
76807;SDS011;65758;45.458;11.062;2023-04-09T14:26:11;4.00;;;2.70;;
76807;SDS011;65758;45.458;11.062;2023-04-09T14:28:38;2.60;;;2.40;;
76807;SDS011;65758;45.458;11.062;2023-04-09T14:31:05;2.40;;;2.20;;
76807;SDS011;65758;45.458;11.062;2023-04-09T14:33:32;2.80;;;2.50;;
76807;SDS011;65758;45.458;11.062;2023-04-09T14:35:59;2.90;;;2.40;;
76807;SDS011;65758;45.458;11.062;2023-04-09T14:38:26;3.00;;;2.70;;
76807;SDS011;65758;45.458;11.062;2023-04-09T14:40:53;2.80;;;2.60;;
76807;SDS011;65758;45.458;11.062;2023-04-09T14:43:20;3.10;;;2.80;;
76807;SDS011;65758;45.458;11.062;2023-04-09T14:45:46;2.70;;;2.50;;
76807;SDS011;65758;45.458;11.062;2023-04-09T14:48:13;3.00;;;2.80;;
76807;SDS011;65758;45.458;11.062;2023-04-09T14:50:40;4.00;;;2.70;;
76807;SDS011;65758;45.458;11.062;2023-04-09T14:53:08;4.10;;;2.70;;
76807;SDS011;65758;45.458;11.062;2023-04-09T14:55:35;6.00;;;3.30;;
76807;SDS011;65758;45.458;11.062;2023-04-09T14:58:02;2.70;;;2.50;;
76807;SDS011;65758;45.458;11.062;2023-04-09T15:00:30;3.50;;;3.20;;
76807;SDS011;65758;45.458;11.062;2023-04-09T15:02:58;4.20;;;3.30;;
76807;SDS011;65758;45.458;11.062;2023-04-09T15:05:25;6.70;;;3.70;;
76807;SDS011;65758;45.458;11.062;2023-04-09T15:07:53;3.40;;;3.10;;
76807;SDS011;65758;45.458;11.062;2023-04-09T15:10:21;4.50;;;3.70;;
76807;SDS011;65758;45.458;11.062;2023-04-09T15:12:48;3.70;;;3.00;;
76807;SDS011;65758;45.458;11.062;2023-04-09T15:15:15;4.30;;;3.40;;